sensor_id;sensor_type;location;lat;lon;timestamp;pressure;altitude;pressure_sealevel;temperature;humidity
33845;BME280;20145;43.118;25.694;2023-04-16T00:02:19;98960.25;;;12.45;65.22
33845;BME280;20145;43.118;25.694;2023-04-16T00:04:45;98963.38;;;12.58;65.78
33845;BME280;20145;43.118;25.694;2023-04-16T00:07:10;98972.75;;;12.61;64.82
33845;BME280;20145;43.118;25.694;2023-04-16T00:09:36;98965.69;;;12.67;63.20
33845;BME280;20145;43.118;25.694;2023-04-16T00:12:02;98964.59;;;12.76;63.59
33845;BME280;20145;43.118;25.694;2023-04-16T00:14:29;98956.59;;;12.84;65.28
33845;BME280;20145;43.118;25.694;2023-04-16T00:16:54;98960.84;;;12.86;62.46
33845;BME280;20145;43.118;25.694;2023-04-16T00:19:20;98965.84;;;12.92;63.55
33845;BME280;20145;43.118;25.694;2023-04-16T00:21:45;98960.66;;;12.92;63.14
33845;BME280;20145;43.118;25.694;2023-04-16T00:24:11;98960.44;;;13.00;63.91
33845;BME280;20145;43.118;25.694;2023-04-16T00:26:37;98958.72;;;12.99;64.48
33845;BME280;20145;43.118;25.694;2023-04-16T00:29:02;98962.09;;;13.03;64.18
33845;BME280;20145;43.118;25.694;2023-04-16T00:31:29;98959.63;;;12.98;65.00
33845;BME280;20145;43.118;25.694;2023-04-16T00:33:55;98959.66;;;12.97;65.10
33845;BME280;20145;43.118;25.694;2023-04-16T00:36:22;98957.88;;;13.00;66.58
33845;BME280;20145;43.118;25.694;2023-04-16T00:38:48;98940.69;;;12.96;67.98
33845;BME280;20145;43.118;25.694;2023-04-16T00:41:14;98952.81;;;12.95;68.18
33845;BME280;20145;43.118;25.694;2023-04-16T00:43:40;98954.59;;;12.93;67.64
33845;BME280;20145;43.118;25.694;2023-04-16T00:46:06;98961.59;;;12.90;68.21
33845;BME280;20145;43.118;25.694;2023-04-16T00:48:33;98959.09;;;12.87;67.90
33845;BME280;20145;43.118;25.694;2023-04-16T00:50:59;98955.75;;;12.83;66.20
33845;BME280;20145;43.118;25.694;2023-04-16T00:53:26;98963.53;;;12.83;67.91
33845;BME280;20145;43.118;25.694;2023-04-16T00:55:52;98963.66;;;12.79;66.52
33845;BME280;20145;43.118;25.694;2023-04-16T00:58:18;98948.38;;;12.69;66.35
33845;BME280;20145;43.118;25.694;2023-04-16T01:00:44;98955.91;;;12.77;64.46
33845;BME280;20145;43.118;25.694;2023-04-16T01:03:10;98959.63;;;12.68;67.42
33845;BME280;20145;43.118;25.694;2023-04-16T01:05:35;98944.28;;;12.61;68.12
33845;BME280;20145;43.118;25.694;2023-04-16T01:08:01;98957.38;;;12.56;67.47
33845;BME280;20145;43.118;25.694;2023-04-16T01:10:27;98952.38;;;12.50;67.32
33845;BME280;20145;43.118;25.694;2023-04-16T01:12:52;98956.00;;;12.43;66.44
33845;BME280;20145;43.118;25.694;2023-04-16T01:15:18;98944.25;;;12.31;67.42
33845;BME280;20145;43.118;25.694;2023-04-16T01:17:47;98943.31;;;12.34;68.44
33845;BME280;20145;43.118;25.694;2023-04-16T01:20:12;98944.34;;;12.28;69.20
33845;BME280;20145;43.118;25.694;2023-04-16T01:22:38;98950.56;;;12.21;69.66
33845;BME280;20145;43.118;25.694;2023-04-16T01:25:04;98954.16;;;12.14;70.33
33845;BME280;20145;43.118;25.694;2023-04-16T01:27:29;98951.88;;;12.03;71.25
33845;BME280;20145;43.118;25.694;2023-04-16T01:29:55;98952.91;;;11.96;70.89
33845;BME280;20145;43.118;25.694;2023-04-16T01:32:21;98952.31;;;11.84;70.50
33845;BME280;20145;43.118;25.694;2023-04-16T01:34:46;98951.53;;;11.81;71.49
33845;BME280;20145;43.118;25.694;2023-04-16T01:37:12;98952.41;;;11.80;71.41
33845;BME280;20145;43.118;25.694;2023-04-16T01:39:37;98932.06;;;11.66;71.76
33845;BME280;20145;43.118;25.694;2023-04-16T01:42:03;98935.56;;;11.64;71.72
33845;BME280;20145;43.118;25.694;2023-04-16T01:44:29;98938.94;;;11.67;72.14
33845;BME280;20145;43.118;25.694;2023-04-16T01:46:55;98958.72;;;11.68;71.04
33845;BME280;20145;43.118;25.694;2023-04-16T01:49:21;98945.13;;;11.60;71.06
33845;BME280;20145;43.118;25.694;2023-04-16T01:51:47;98947.81;;;11.55;71.74
33845;BME280;20145;43.118;25.694;2023-04-16T01:54:12;98954.81;;;11.52;73.14
33845;BME280;20145;43.118;25.694;2023-04-16T01:56:38;98951.63;;;11.41;72.39
33845;BME280;20145;43.118;25.694;2023-04-16T01:59:03;98949.94;;;11.38;72.50
33845;BME280;20145;43.118;25.694;2023-04-16T02:01:29;98940.69;;;11.29;73.06
33845;BME280;20145;43.118;25.694;2023-04-16T02:03:56;98951.94;;;11.27;72.24
33845;BME280;20145;43.118;25.694;2023-04-16T02:06:22;98952.97;;;11.20;71.75
33845;BME280;20145;43.118;25.694;2023-04-16T02:08:47;98953.22;;;11.07;72.28
33845;BME280;20145;43.118;25.694;2023-04-16T02:11:13;98934.53;;;10.96;72.54
33845;BME280;20145;43.118;25.694;2023-04-16T02:13:39;98947.44;;;10.94;73.13
33845;BME280;20145;43.118;25.694;2023-04-16T02:16:04;98953.63;;;10.87;73.56
33845;BME280;20145;43.118;25.694;2023-04-16T02:18:30;98945.22;;;10.78;73.69
33845;BME280;20145;43.118;25.694;2023-04-16T02:20:57;98952.25;;;10.69;73.37
33845;BME280;20145;43.118;25.694;2023-04-16T02:23:26;98943.94;;;10.57;73.49
33845;BME280;20145;43.118;25.694;2023-04-16T02:25:52;98953.50;;;10.50;72.67
33845;BME280;20145;43.118;25.694;2023-04-16T02:28:17;98949.31;;;10.44;73.28
33845;BME280;20145;43.118;25.694;2023-04-16T02:30:43;98943.41;;;10.39;72.43
33845;BME280;20145;43.118;25.694;2023-04-16T02:33:10;98944.16;;;10.44;72.44
33845;BME280;20145;43.118;25.694;2023-04-16T02:35:37;98947.63;;;10.43;72.15
33845;BME280;20145;43.118;25.694;2023-04-16T02:38:04;98950.25;;;10.40;74.15
33845;BME280;20145;43.118;25.694;2023-04-16T02:40:30;98946.97;;;10.34;73.23
33845;BME280;20145;43.118;25.694;2023-04-16T02:42:56;98939.19;;;10.35;73.31
33845;BME280;20145;43.118;25.694;2023-04-16T02:45:22;98939.88;;;10.43;73.59
33845;BME280;20145;43.118;25.694;2023-04-16T02:47:48;98949.31;;;10.44;73.41
33845;BME280;20145;43.118;25.694;2023-04-16T02:50:14;98938.06;;;10.48;72.28
33845;BME280;20145;43.118;25.694;2023-04-16T02:52:40;98938.03;;;10.50;72.73
33845;BME280;20145;43.118;25.694;2023-04-16T02:55:06;98941.22;;;10.63;71.35
33845;BME280;20145;43.118;25.694;2023-04-16T02:57:32;98938.53;;;10.69;72.16
33845;BME280;20145;43.118;25.694;2023-04-16T02:59:58;98938.16;;;10.86;72.18
33845;BME280;20145;43.118;25.694;2023-04-16T03:02:23;98944.06;;;10.92;72.61
33845;BME280;20145;43.118;25.694;2023-04-16T03:04:49;98952.81;;;10.85;71.42
33845;BME280;20145;43.118;25.694;2023-04-16T03:07:14;98934.88;;;10.79;70.03
33845;BME280;20145;43.118;25.694;2023-04-16T03:09:41;98947.72;;;10.82;70.24
33845;BME280;20145;43.118;25.694;2023-04-16T03:12:07;98954.69;;;10.79;70.75
33845;BME280;20145;43.118;25.694;2023-04-16T03:14:32;98951.00;;;10.89;71.82
33845;BME280;20145;43.118;25.694;2023-04-16T03:16:58;98950.00;;;10.98;73.05
33845;BME280;20145;43.118;25.694;2023-04-16T03:19:23;98951.66;;;11.00;73.72
33845;BME280;20145;43.118;25.694;2023-04-16T03:21:49;98952.47;;;11.02;74.99
33845;BME280;20145;43.118;25.694;2023-04-16T03:24:15;98945.59;;;11.01;75.24
33845;BME280;20145;43.118;25.694;2023-04-16T03:26:41;98947.28;;;11.04;74.52
33845;BME280;20145;43.118;25.694;2023-04-16T03:29:06;98953.28;;;11.04;74.23
33845;BME280;20145;43.118;25.694;2023-04-16T03:31:32;98954.09;;;11.06;72.88
33845;BME280;20145;43.118;25.694;2023-04-16T03:33:57;98949.78;;;11.07;73.90
33845;BME280;20145;43.118;25.694;2023-04-16T03:36:23;98953.91;;;11.15;73.68
33845;BME280;20145;43.118;25.694;2023-04-16T03:38:49;98958.00;;;11.26;72.90
33845;BME280;20145;43.118;25.694;2023-04-16T03:41:15;98947.50;;;11.33;74.22
33845;BME280;20145;43.118;25.694;2023-04-16T03:43:40;98952.50;;;11.39;74.89
33845;BME280;20145;43.118;25.694;2023-04-16T03:46:06;98936.03;;;11.45;73.58
33845;BME280;20145;43.118;25.694;2023-04-16T03:48:31;98932.38;;;11.52;71.66
33845;BME280;20145;43.118;25.694;2023-04-16T03:50:57;98951.81;;;11.69;71.39
33845;BME280;20145;43.118;25.694;2023-04-16T03:53:23;98950.66;;;11.80;71.78
33845;BME280;20145;43.118;25.694;2023-04-16T03:55:49;98952.94;;;11.94;71.67
33845;BME280;20145;43.118;25.694;2023-04-16T03:58:18;98946.56;;;12.09;72.88
33845;BME280;20145;43.118;25.694;2023-04-16T04:00:44;98933.19;;;12.24;72.22
33845;BME280;20145;43.118;25.694;2023-04-16T04:03:10;98954.53;;;12.65;71.10
33845;BME280;20145;43.118;25.694;2023-04-16T04:05:40;98951.97;;;12.95;71.35
33845;BME280;20145;43.118;25.694;2023-04-16T04:08:06;98955.81;;;13.11;69.94
33845;BME280;20145;43.118;25.694;2023-04-16T04:10:32;98956.97;;;13.31;69.59
33845;BME280;20145;43.118;25.694;2023-04-16T04:12:58;98953.97;;;13.45;68.48
33845;BME280;20145;43.118;25.694;2023-04-16T04:15:24;98950.78;;;13.63;67.05
33845;BME280;20145;43.118;25.694;2023-04-16T04:17:50;98970.31;;;13.73;67.74
33845;BME280;20145;43.118;25.694;2023-04-16T04:20:16;98970.91;;;13.83;67.92
33845;BME280;20145;43.118;25.694;2023-04-16T04:22:41;98972.38;;;13.90;67.74
33845;BME280;20145;43.118;25.694;2023-04-16T04:25:08;98977.31;;;13.98;66.34
33845;BME280;20145;43.118;25.694;2023-04-16T04:27:34;98966.81;;;14.02;67.42
33845;BME280;20145;43.118;25.694;2023-04-16T04:30:00;98964.84;;;14.09;67.12
33845;BME280;20145;43.118;25.694;2023-04-16T04:32:25;98973.00;;;14.23;66.39
33845;BME280;20145;43.118;25.694;2023-04-16T04:34:51;98970.94;;;14.33;65.89
33845;BME280;20145;43.118;25.694;2023-04-16T04:37:16;98970.41;;;14.48;65.86
33845;BME280;20145;43.118;25.694;2023-04-16T04:39:42;98967.25;;;14.65;66.04
33845;BME280;20145;43.118;25.694;2023-04-16T04:42:07;98973.47;;;14.85;64.74
33845;BME280;20145;43.118;25.694;2023-04-16T04:44:33;98955.25;;;14.86;63.76
33845;BME280;20145;43.118;25.694;2023-04-16T04:46:59;98968.44;;;15.04;61.57
33845;BME280;20145;43.118;25.694;2023-04-16T04:49:24;98970.81;;;15.10;62.92
33845;BME280;20145;43.118;25.694;2023-04-16T04:51:50;98986.84;;;15.21;61.82
33845;BME280;20145;43.118;25.694;2023-04-16T04:54:15;98983.16;;;15.27;61.40
33845;BME280;20145;43.118;25.694;2023-04-16T04:56:41;98976.94;;;15.31;63.27
33845;BME280;20145;43.118;25.694;2023-04-16T04:59:09;98984.59;;;15.35;63.69
33845;BME280;20145;43.118;25.694;2023-04-16T05:01:35;98985.34;;;15.37;62.90
33845;BME280;20145;43.118;25.694;2023-04-16T05:04:02;98977.34;;;15.44;62.04
33845;BME280;20145;43.118;25.694;2023-04-16T05:06:27;98946.88;;;15.24;62.06
33845;BME280;20145;43.118;25.694;2023-04-16T05:08:53;98981.44;;;15.49;61.58
33845;BME280;20145;43.118;25.694;2023-04-16T05:11:18;98988.16;;;15.55;61.77
33845;BME280;20145;43.118;25.694;2023-04-16T05:13:44;98983.72;;;15.57;61.76
33845;BME280;20145;43.118;25.694;2023-04-16T05:16:09;98980.91;;;15.63;61.14
33845;BME280;20145;43.118;25.694;2023-04-16T05:18:35;98981.66;;;15.65;62.46
33845;BME280;20145;43.118;25.694;2023-04-16T05:21:00;98986.44;;;15.77;62.47
33845;BME280;20145;43.118;25.694;2023-04-16T05:23:26;98988.69;;;15.85;62.32
33845;BME280;20145;43.118;25.694;2023-04-16T05:25:52;98987.72;;;15.88;60.85
33845;BME280;20145;43.118;25.694;2023-04-16T05:28:17;98987.97;;;16.03;60.97
33845;BME280;20145;43.118;25.694;2023-04-16T05:30:43;98996.69;;;16.23;59.17
33845;BME280;20145;43.118;25.694;2023-04-16T05:33:08;99003.00;;;16.38;60.12
33845;BME280;20145;43.118;25.694;2023-04-16T05:35:34;98993.72;;;16.53;58.89
33845;BME280;20145;43.118;25.694;2023-04-16T05:37:59;98999.03;;;16.70;58.54
33845;BME280;20145;43.118;25.694;2023-04-16T05:40:25;98997.69;;;16.82;58.89
33845;BME280;20145;43.118;25.694;2023-04-16T05:42:51;98999.81;;;16.92;58.23
33845;BME280;20145;43.118;25.694;2023-04-16T05:45:16;98995.03;;;17.02;58.55
33845;BME280;20145;43.118;25.694;2023-04-16T05:47:52;98999.41;;;17.02;59.16
33845;BME280;20145;43.118;25.694;2023-04-16T05:50:17;98998.31;;;16.87;59.15
33845;BME280;20145;43.118;25.694;2023-04-16T05:52:43;98994.94;;;16.85;59.69
33845;BME280;20145;43.118;25.694;2023-04-16T05:55:08;99004.66;;;16.81;59.83
33845;BME280;20145;43.118;25.694;2023-04-16T05:57:34;99004.13;;;16.93;60.87
33845;BME280;20145;43.118;25.694;2023-04-16T06:00:00;99006.44;;;17.00;60.30
33845;BME280;20145;43.118;25.694;2023-04-16T06:02:26;98993.97;;;17.25;59.28
33845;BME280;20145;43.118;25.694;2023-04-16T06:04:51;98999.44;;;17.57;58.67
33845;BME280;20145;43.118;25.694;2023-04-16T06:07:17;98989.75;;;17.78;58.29
33845;BME280;20145;43.118;25.694;2023-04-16T06:09:43;98989.59;;;18.00;57.75
33845;BME280;20145;43.118;25.694;2023-04-16T06:12:09;98992.31;;;18.16;55.14
33845;BME280;20145;43.118;25.694;2023-04-16T06:14:34;98985.63;;;18.27;54.95
33845;BME280;20145;43.118;25.694;2023-04-16T06:17:00;98982.47;;;18.38;53.25
33845;BME280;20145;43.118;25.694;2023-04-16T06:19:26;98987.16;;;18.65;52.10
33845;BME280;20145;43.118;25.694;2023-04-16T06:21:52;98984.56;;;18.82;52.22
33845;BME280;20145;43.118;25.694;2023-04-16T06:24:18;98980.47;;;18.94;51.30
33845;BME280;20145;43.118;25.694;2023-04-16T06:26:44;98980.06;;;19.02;51.03
33845;BME280;20145;43.118;25.694;2023-04-16T06:29:10;98982.78;;;19.16;50.52
33845;BME280;20145;43.118;25.694;2023-04-16T06:31:36;98988.06;;;19.14;50.51
33845;BME280;20145;43.118;25.694;2023-04-16T06:34:01;98987.41;;;19.11;50.45
33845;BME280;20145;43.118;25.694;2023-04-16T06:36:27;98981.00;;;19.16;51.32
33845;BME280;20145;43.118;25.694;2023-04-16T06:38:53;98989.94;;;19.12;50.45
33845;BME280;20145;43.118;25.694;2023-04-16T06:41:19;98986.13;;;19.02;52.20
33845;BME280;20145;43.118;25.694;2023-04-16T06:43:46;98992.66;;;18.25;56.37
33845;BME280;20145;43.118;25.694;2023-04-16T06:46:12;99003.53;;;17.81;57.30
33845;BME280;20145;43.118;25.694;2023-04-16T06:48:37;98997.72;;;17.94;57.98
33845;BME280;20145;43.118;25.694;2023-04-16T06:51:03;99002.59;;;18.19;57.38
33845;BME280;20145;43.118;25.694;2023-04-16T06:53:29;98994.22;;;18.30;53.84
33845;BME280;20145;43.118;25.694;2023-04-16T06:55:54;98998.78;;;18.59;52.09
33845;BME280;20145;43.118;25.694;2023-04-16T06:58:20;99001.34;;;18.26;52.86
33845;BME280;20145;43.118;25.694;2023-04-16T07:00:46;99004.94;;;18.23;53.04
33845;BME280;20145;43.118;25.694;2023-04-16T07:03:12;99000.28;;;18.47;53.98
33845;BME280;20145;43.118;25.694;2023-04-16T07:05:38;99004.25;;;18.72;53.95
33845;BME280;20145;43.118;25.694;2023-04-16T07:08:03;99011.31;;;18.87;53.50
33845;BME280;20145;43.118;25.694;2023-04-16T07:10:29;99008.84;;;18.84;53.49
33845;BME280;20145;43.118;25.694;2023-04-16T07:12:55;99002.50;;;19.06;53.08
33845;BME280;20145;43.118;25.694;2023-04-16T07:15:21;99001.06;;;19.16;53.39
33845;BME280;20145;43.118;25.694;2023-04-16T07:17:46;99000.13;;;19.17;53.34
33845;BME280;20145;43.118;25.694;2023-04-16T07:20:12;99008.28;;;19.60;54.63
33845;BME280;20145;43.118;25.694;2023-04-16T07:22:37;99000.81;;;20.00;56.00
33845;BME280;20145;43.118;25.694;2023-04-16T07:25:03;99003.97;;;20.21;53.45
33845;BME280;20145;43.118;25.694;2023-04-16T07:27:29;99000.03;;;19.98;53.53
33845;BME280;20145;43.118;25.694;2023-04-16T07:29:54;98994.13;;;20.10;56.12
33845;BME280;20145;43.118;25.694;2023-04-16T07:32:20;99004.88;;;19.90;55.01
33845;BME280;20145;43.118;25.694;2023-04-16T07:34:46;99006.16;;;19.98;54.06
33845;BME280;20145;43.118;25.694;2023-04-16T07:37:12;99007.78;;;20.15;53.70
33845;BME280;20145;43.118;25.694;2023-04-16T07:39:37;98998.03;;;20.17;53.71
33845;BME280;20145;43.118;25.694;2023-04-16T07:42:03;99000.44;;;20.06;53.66
33845;BME280;20145;43.118;25.694;2023-04-16T07:44:29;99006.28;;;20.11;53.22
33845;BME280;20145;43.118;25.694;2023-04-16T07:46:54;99001.53;;;20.18;52.80
33845;BME280;20145;43.118;25.694;2023-04-16T07:49:20;99010.88;;;20.22;53.79
33845;BME280;20145;43.118;25.694;2023-04-16T07:51:46;99005.88;;;20.33;54.09
33845;BME280;20145;43.118;25.694;2023-04-16T07:54:11;98999.50;;;20.67;52.75
33845;BME280;20145;43.118;25.694;2023-04-16T07:56:37;98997.47;;;21.01;53.02
33845;BME280;20145;43.118;25.694;2023-04-16T07:59:02;99000.72;;;21.05;50.56
33845;BME280;20145;43.118;25.694;2023-04-16T08:01:28;98994.44;;;21.07;50.81
33845;BME280;20145;43.118;25.694;2023-04-16T08:03:54;98986.00;;;21.16;51.83
33845;BME280;20145;43.118;25.694;2023-04-16T08:06:19;98984.09;;;21.47;49.89
33845;BME280;20145;43.118;25.694;2023-04-16T08:08:45;98985.19;;;21.57;51.18
33845;BME280;20145;43.118;25.694;2023-04-16T08:11:10;98983.72;;;21.39;50.73
33845;BME280;20145;43.118;25.694;2023-04-16T08:13:36;98985.69;;;21.50;51.61
33845;BME280;20145;43.118;25.694;2023-04-16T08:16:02;98986.44;;;21.52;51.81
33845;BME280;20145;43.118;25.694;2023-04-16T08:18:27;98992.22;;;21.57;51.41
33845;BME280;20145;43.118;25.694;2023-04-16T08:20:53;98989.81;;;21.81;51.06
33845;BME280;20145;43.118;25.694;2023-04-16T08:23:19;98980.56;;;21.34;51.57
33845;BME280;20145;43.118;25.694;2023-04-16T08:25:46;98966.50;;;21.21;50.39
33845;BME280;20145;43.118;25.694;2023-04-16T08:28:12;98973.16;;;21.26;53.00
33845;BME280;20145;43.118;25.694;2023-04-16T08:30:37;98969.22;;;21.19;51.76
33845;BME280;20145;43.118;25.694;2023-04-16T08:33:03;98968.47;;;21.17;52.53
33845;BME280;20145;43.118;25.694;2023-04-16T08:35:29;98969.88;;;21.37;52.48
33845;BME280;20145;43.118;25.694;2023-04-16T08:37:54;98966.81;;;21.57;51.77
33845;BME280;20145;43.118;25.694;2023-04-16T08:40:23;98972.06;;;21.85;51.38
33845;BME280;20145;43.118;25.694;2023-04-16T08:42:53;98976.34;;;21.73;50.34
33845;BME280;20145;43.118;25.694;2023-04-16T08:45:22;98968.28;;;21.61;50.97
33845;BME280;20145;43.118;25.694;2023-04-16T08:47:51;98963.44;;;21.82;51.16
33845;BME280;20145;43.118;25.694;2023-04-16T08:50:26;98959.28;;;21.93;50.29
33845;BME280;20145;43.118;25.694;2023-04-16T08:53:00;98958.44;;;22.05;50.05
33845;BME280;20145;43.118;25.694;2023-04-16T08:55:38;98963.13;;;22.14;48.85
33845;BME280;20145;43.118;25.694;2023-04-16T08:58:18;98961.88;;;22.20;50.19
33845;BME280;20145;43.118;25.694;2023-04-16T09:00:44;98969.13;;;22.42;47.68
33845;BME280;20145;43.118;25.694;2023-04-16T09:03:11;98961.78;;;22.47;48.98
33845;BME280;20145;43.118;25.694;2023-04-16T09:05:37;98972.63;;;22.42;48.72
33845;BME280;20145;43.118;25.694;2023-04-16T09:08:06;98943.84;;;22.01;47.98
33845;BME280;20145;43.118;25.694;2023-04-16T09:10:33;98962.94;;;22.03;48.74
33845;BME280;20145;43.118;25.694;2023-04-16T09:12:59;98964.66;;;22.17;48.11
33845;BME280;20145;43.118;25.694;2023-04-16T09:15:25;98957.13;;;22.25;48.42
33845;BME280;20145;43.118;25.694;2023-04-16T09:17:52;98962.22;;;22.54;48.35
33845;BME280;20145;43.118;25.694;2023-04-16T09:20:18;98960.75;;;22.62;46.54
33845;BME280;20145;43.118;25.694;2023-04-16T09:22:45;98959.88;;;22.36;46.92
33845;BME280;20145;43.118;25.694;2023-04-16T09:25:11;98953.25;;;22.31;47.61
33845;BME280;20145;43.118;25.694;2023-04-16T09:27:38;98950.97;;;21.99;48.49
33845;BME280;20145;43.118;25.694;2023-04-16T09:30:20;98967.84;;;21.82;47.48
33845;BME280;20145;43.118;25.694;2023-04-16T09:32:46;98968.91;;;22.19;48.71
33845;BME280;20145;43.118;25.694;2023-04-16T09:35:12;98960.03;;;22.47;47.55
33845;BME280;20145;43.118;25.694;2023-04-16T09:37:39;98963.78;;;22.82;47.09
33845;BME280;20145;43.118;25.694;2023-04-16T09:40:05;98961.53;;;23.14;46.22
33845;BME280;20145;43.118;25.694;2023-04-16T09:42:35;98959.97;;;23.48;46.14
33845;BME280;20145;43.118;25.694;2023-04-16T09:45:02;98950.03;;;23.52;44.22
33845;BME280;20145;43.118;25.694;2023-04-16T09:47:40;98958.72;;;23.41;43.89
33845;BME280;20145;43.118;25.694;2023-04-16T09:50:07;98955.41;;;23.26;43.47
33845;BME280;20145;43.118;25.694;2023-04-16T09:52:36;98957.59;;;22.96;44.97
33845;BME280;20145;43.118;25.694;2023-04-16T09:55:04;98964.09;;;22.39;45.06
33845;BME280;20145;43.118;25.694;2023-04-16T09:57:30;98957.66;;;22.17;46.23
33845;BME280;20145;43.118;25.694;2023-04-16T10:00:07;98963.00;;;22.16;44.89
33845;BME280;20145;43.118;25.694;2023-04-16T10:02:39;98963.63;;;22.07;45.54
33845;BME280;20145;43.118;25.694;2023-04-16T10:05:05;98955.09;;;22.16;44.42
33845;BME280;20145;43.118;25.694;2023-04-16T10:07:35;98957.47;;;22.46;43.66
33845;BME280;20145;43.118;25.694;2023-04-16T10:10:02;98952.22;;;22.46;43.24
33845;BME280;20145;43.118;25.694;2023-04-16T10:12:28;98959.16;;;22.47;43.59
33845;BME280;20145;43.118;25.694;2023-04-16T10:14:54;98942.44;;;22.74;43.54
33845;BME280;20145;43.118;25.694;2023-04-16T10:17:20;98948.63;;;22.98;44.72
33845;BME280;20145;43.118;25.694;2023-04-16T10:19:46;98941.19;;;23.29;43.09
33845;BME280;20145;43.118;25.694;2023-04-16T10:22:12;98936.72;;;23.42;42.48
33845;BME280;20145;43.118;25.694;2023-04-16T10:24:40;98936.09;;;23.63;41.66
33845;BME280;20145;43.118;25.694;2023-04-16T10:27:05;98932.69;;;23.73;40.65
33845;BME280;20145;43.118;25.694;2023-04-16T10:29:31;98930.84;;;23.87;39.79
33845;BME280;20145;43.118;25.694;2023-04-16T10:31:58;98925.63;;;24.09;38.12
33845;BME280;20145;43.118;25.694;2023-04-16T10:34:25;98923.00;;;24.09;37.03
33845;BME280;20145;43.118;25.694;2023-04-16T10:36:53;98917.94;;;23.95;36.97
33845;BME280;20145;43.118;25.694;2023-04-16T10:39:22;98922.44;;;23.33;39.28
33845;BME280;20145;43.118;25.694;2023-04-16T10:41:49;98918.09;;;23.32;39.10
33845;BME280;20145;43.118;25.694;2023-04-16T10:44:17;98915.25;;;23.11;38.95
33845;BME280;20145;43.118;25.694;2023-04-16T10:46:45;98920.84;;;22.81;40.11
33845;BME280;20145;43.118;25.694;2023-04-16T10:49:18;98918.31;;;22.80;39.65
33845;BME280;20145;43.118;25.694;2023-04-16T10:51:57;98920.16;;;22.54;38.89
33845;BME280;20145;43.118;25.694;2023-04-16T10:54:27;98921.41;;;22.35;39.39
33845;BME280;20145;43.118;25.694;2023-04-16T10:56:56;98920.94;;;22.16;41.44
33845;BME280;20145;43.118;25.694;2023-04-16T10:59:23;98926.09;;;22.04;41.52
33845;BME280;20145;43.118;25.694;2023-04-16T11:01:55;98930.06;;;21.97;40.59
33845;BME280;20145;43.118;25.694;2023-04-16T11:10:04;98925.72;;;22.36;41.76
33845;BME280;20145;43.118;25.694;2023-04-16T11:12:33;98937.09;;;22.37;41.11
33845;BME280;20145;43.118;25.694;2023-04-16T11:15:02;98930.25;;;22.34;41.24
33845;BME280;20145;43.118;25.694;2023-04-16T11:17:39;98924.97;;;22.60;41.67
33845;BME280;20145;43.118;25.694;2023-04-16T11:22:41;98929.59;;;22.43;41.17
33845;BME280;20145;43.118;25.694;2023-04-16T11:25:07;98920.88;;;22.56;41.05
33845;BME280;20145;43.118;25.694;2023-04-16T11:27:33;98924.31;;;22.69;41.77
33845;BME280;20145;43.118;25.694;2023-04-16T11:30:04;98915.28;;;22.73;41.72
33845;BME280;20145;43.118;25.694;2023-04-16T11:32:31;98917.63;;;22.65;38.58
33845;BME280;20145;43.118;25.694;2023-04-16T11:34:58;98913.41;;;22.62;40.84
33845;BME280;20145;43.118;25.694;2023-04-16T11:37:31;98914.16;;;22.64;41.98
33845;BME280;20145;43.118;25.694;2023-04-16T11:40:01;98909.81;;;22.76;40.43
33845;BME280;20145;43.118;25.694;2023-04-16T11:42:29;98896.53;;;22.78;40.12
33845;BME280;20145;43.118;25.694;2023-04-16T11:44:56;98887.19;;;22.61;38.62
33845;BME280;20145;43.118;25.694;2023-04-16T11:47:22;98893.69;;;22.81;39.33
33845;BME280;20145;43.118;25.694;2023-04-16T11:49:49;98890.50;;;22.88;39.02
33845;BME280;20145;43.118;25.694;2023-04-16T11:52:31;98891.50;;;22.75;39.32
33845;BME280;20145;43.118;25.694;2023-04-16T11:54:57;98887.38;;;22.83;40.10
33845;BME280;20145;43.118;25.694;2023-04-16T11:57:27;98887.19;;;22.86;40.34
33845;BME280;20145;43.118;25.694;2023-04-16T11:59:54;98881.41;;;22.68;40.38
33845;BME280;20145;43.118;25.694;2023-04-16T12:05:34;98879.53;;;22.58;40.08
33845;BME280;20145;43.118;25.694;2023-04-16T12:08:03;98883.13;;;22.57;40.21
33845;BME280;20145;43.118;25.694;2023-04-16T12:10:31;98880.06;;;22.50;41.32
33845;BME280;20145;43.118;25.694;2023-04-16T12:13:12;98872.16;;;22.63;41.15
33845;BME280;20145;43.118;25.694;2023-04-16T12:18:15;98867.91;;;22.23;42.83
33845;BME280;20145;43.118;25.694;2023-04-16T12:20:42;98865.25;;;22.36;44.18
33845;BME280;20145;43.118;25.694;2023-04-16T12:23:09;98859.16;;;22.36;43.64
33845;BME280;20145;43.118;25.694;2023-04-16T12:25:35;98853.44;;;21.91;43.93
33845;BME280;20145;43.118;25.694;2023-04-16T12:28:01;98849.06;;;22.04;44.01
33845;BME280;20145;43.118;25.694;2023-04-16T12:30:27;98844.13;;;22.12;44.48
33845;BME280;20145;43.118;25.694;2023-04-16T12:33:12;98842.66;;;22.21;45.20
33845;BME280;20145;43.118;25.694;2023-04-16T12:35:39;98847.50;;;22.27;44.83
33845;BME280;20145;43.118;25.694;2023-04-16T12:38:06;98837.41;;;22.21;43.14
33845;BME280;20145;43.118;25.694;2023-04-16T12:40:32;98833.28;;;22.04;44.54
33845;BME280;20145;43.118;25.694;2023-04-16T12:42:58;98843.25;;;21.86;44.78
33845;BME280;20145;43.118;25.694;2023-04-16T12:45:24;98833.81;;;21.96;45.17
33845;BME280;20145;43.118;25.694;2023-04-16T12:47:49;98825.47;;;21.64;44.06
33845;BME280;20145;43.118;25.694;2023-04-16T12:50:16;98839.13;;;21.69;46.19
33845;BME280;20145;43.118;25.694;2023-04-16T12:52:41;98833.78;;;21.71;45.63
33845;BME280;20145;43.118;25.694;2023-04-16T12:55:07;98830.63;;;21.66;44.51
33845;BME280;20145;43.118;25.694;2023-04-16T12:57:33;98827.75;;;21.43;45.39
33845;BME280;20145;43.118;25.694;2023-04-16T12:59:58;98829.88;;;21.51;45.19
33845;BME280;20145;43.118;25.694;2023-04-16T13:02:24;98819.38;;;21.51;44.57